sensor_id;sensor_type;location;lat;lon;timestamp;P1;durP1;ratioP1;P2;durP2;ratioP2
52458;SDS011;38372;52.902;6.024;2022-12-29T00:01:29;9.15;;;6.10;;
52458;SDS011;38372;52.902;6.024;2022-12-29T00:03:55;6.60;;;5.00;;
52458;SDS011;38372;52.902;6.024;2022-12-29T00:06:21;7.70;;;4.95;;
52458;SDS011;38372;52.902;6.024;2022-12-29T00:08:46;6.75;;;5.72;;
52458;SDS011;38372;52.902;6.024;2022-12-29T00:11:18;7.43;;;6.35;;
52458;SDS011;38372;52.902;6.024;2022-12-29T00:13:45;7.25;;;6.32;;
52458;SDS011;38372;52.902;6.024;2022-12-29T00:16:33;7.32;;;5.85;;
52458;SDS011;38372;52.902;6.024;2022-12-29T00:18:59;6.93;;;5.65;;
52458;SDS011;38372;52.902;6.024;2022-12-29T00:21:25;6.53;;;5.60;;
52458;SDS011;38372;52.902;6.024;2022-12-29T00:24:14;6.07;;;5.15;;
52458;SDS011;38372;52.902;6.024;2022-12-29T00:29:49;7.20;;;5.18;;
52458;SDS011;38372;52.902;6.024;2022-12-29T00:32:33;5.32;;;4.28;;
52458;SDS011;38372;52.902;6.024;2022-12-29T00:35:24;5.43;;;4.82;;
52458;SDS011;38372;52.902;6.024;2022-12-29T00:37:59;7.25;;;5.07;;
52458;SDS011;38372;52.902;6.024;2022-12-29T00:40:46;5.65;;;4.95;;
52458;SDS011;38372;52.902;6.024;2022-12-29T00:43:30;6.88;;;4.70;;
52458;SDS011;38372;52.902;6.024;2022-12-29T00:46:15;6.40;;;4.82;;
52458;SDS011;38372;52.902;6.024;2022-12-29T00:48:40;5.93;;;4.63;;
52458;SDS011;38372;52.902;6.024;2022-12-29T00:51:25;7.05;;;4.35;;
52458;SDS011;38372;52.902;6.024;2022-12-29T00:53:51;4.35;;;3.72;;
52458;SDS011;38372;52.902;6.024;2022-12-29T00:56:16;7.00;;;4.75;;
52458;SDS011;38372;52.902;6.024;2022-12-29T00:58:42;4.93;;;3.88;;
52458;SDS011;38372;52.902;6.024;2022-12-29T01:01:08;5.45;;;4.10;;
52458;SDS011;38372;52.902;6.024;2022-12-29T01:03:35;4.13;;;3.72;;
52458;SDS011;38372;52.902;6.024;2022-12-29T01:06:09;5.70;;;3.97;;
52458;SDS011;38372;52.902;6.024;2022-12-29T01:08:36;3.88;;;3.03;;
52458;SDS011;38372;52.902;6.024;2022-12-29T01:11:03;5.90;;;4.05;;
52458;SDS011;38372;52.902;6.024;2022-12-29T01:13:34;4.97;;;3.60;;
52458;SDS011;38372;52.902;6.024;2022-12-29T01:16:02;5.05;;;3.85;;
52458;SDS011;38372;52.902;6.024;2022-12-29T01:18:28;3.35;;;2.67;;
52458;SDS011;38372;52.902;6.024;2022-12-29T01:21:00;6.03;;;3.42;;
52458;SDS011;38372;52.902;6.024;2022-12-29T01:23:28;5.72;;;3.92;;
52458;SDS011;38372;52.902;6.024;2022-12-29T01:25:54;3.97;;;2.70;;
52458;SDS011;38372;52.902;6.024;2022-12-29T01:28:21;5.78;;;3.88;;
52458;SDS011;38372;52.902;6.024;2022-12-29T01:30:47;4.97;;;2.67;;
52458;SDS011;38372;52.902;6.024;2022-12-29T01:33:13;4.80;;;2.95;;
52458;SDS011;38372;52.902;6.024;2022-12-29T01:35:39;3.42;;;2.10;;
52458;SDS011;38372;52.902;6.024;2022-12-29T01:38:05;5.40;;;2.55;;
52458;SDS011;38372;52.902;6.024;2022-12-29T01:40:31;3.05;;;2.10;;
52458;SDS011;38372;52.902;6.024;2022-12-29T01:42:57;4.00;;;2.30;;
52458;SDS011;38372;52.902;6.024;2022-12-29T01:45:22;4.15;;;2.75;;
52458;SDS011;38372;52.902;6.024;2022-12-29T01:47:58;3.45;;;2.28;;
52458;SDS011;38372;52.902;6.024;2022-12-29T01:50:32;3.17;;;2.10;;
52458;SDS011;38372;52.902;6.024;2022-12-29T01:53:06;6.05;;;2.50;;
52458;SDS011;38372;52.902;6.024;2022-12-29T01:55:40;3.80;;;2.10;;
52458;SDS011;38372;52.902;6.024;2022-12-29T01:58:09;5.43;;;2.13;;
52458;SDS011;38372;52.902;6.024;2022-12-29T02:00:38;3.78;;;1.98;;
52458;SDS011;38372;52.902;6.024;2022-12-29T02:03:04;4.57;;;2.08;;
52458;SDS011;38372;52.902;6.024;2022-12-29T02:05:39;3.22;;;1.88;;
52458;SDS011;38372;52.902;6.024;2022-12-29T02:08:25;5.53;;;2.15;;
52458;SDS011;38372;52.902;6.024;2022-12-29T02:10:54;5.05;;;3.15;;
52458;SDS011;38372;52.902;6.024;2022-12-29T02:13:25;2.05;;;1.45;;
52458;SDS011;38372;52.902;6.024;2022-12-29T02:32:45;3.80;;;1.65;;
52458;SDS011;38372;52.902;6.024;2022-12-29T02:35:23;2.60;;;1.55;;
52458;SDS011;38372;52.902;6.024;2022-12-29T02:38:17;2.70;;;2.13;;
52458;SDS011;38372;52.902;6.024;2022-12-29T02:46:33;3.03;;;1.60;;
52458;SDS011;38372;52.902;6.024;2022-12-29T02:51:37;3.50;;;1.75;;
52458;SDS011;38372;52.902;6.024;2022-12-29T02:54:27;2.15;;;1.50;;
52458;SDS011;38372;52.902;6.024;2022-12-29T02:57:12;3.50;;;1.70;;
52458;SDS011;38372;52.902;6.024;2022-12-29T02:59:48;1.90;;;1.30;;
52458;SDS011;38372;52.902;6.024;2022-12-29T03:07:46;2.45;;;1.42;;
52458;SDS011;38372;52.902;6.024;2022-12-29T03:16:36;3.45;;;1.35;;
52458;SDS011;38372;52.902;6.024;2022-12-29T03:19:16;2.93;;;1.13;;
52458;SDS011;38372;52.902;6.024;2022-12-29T03:21:49;4.15;;;1.20;;
52458;SDS011;38372;52.902;6.024;2022-12-29T03:24:41;4.32;;;1.40;;
52458;SDS011;38372;52.902;6.024;2022-12-29T03:27:10;3.22;;;1.42;;
52458;SDS011;38372;52.902;6.024;2022-12-29T03:29:42;2.25;;;1.48;;
52458;SDS011;38372;52.902;6.024;2022-12-29T03:32:18;3.45;;;1.60;;
52458;SDS011;38372;52.902;6.024;2022-12-29T03:34:47;2.22;;;1.42;;
52458;SDS011;38372;52.902;6.024;2022-12-29T03:37:16;4.18;;;1.55;;
52458;SDS011;38372;52.902;6.024;2022-12-29T03:39:45;4.18;;;1.48;;
52458;SDS011;38372;52.902;6.024;2022-12-29T03:42:16;3.05;;;1.30;;
52458;SDS011;38372;52.902;6.024;2022-12-29T03:44:45;3.35;;;1.42;;
52458;SDS011;38372;52.902;6.024;2022-12-29T03:47:11;2.17;;;1.00;;
52458;SDS011;38372;52.902;6.024;2022-12-29T03:49:38;3.40;;;1.10;;
52458;SDS011;38372;52.902;6.024;2022-12-29T03:52:04;3.15;;;1.15;;
52458;SDS011;38372;52.902;6.024;2022-12-29T03:54:31;2.92;;;1.27;;
52458;SDS011;38372;52.902;6.024;2022-12-29T03:56:57;4.10;;;1.73;;
52458;SDS011;38372;52.902;6.024;2022-12-29T03:59:23;4.68;;;1.13;;
52458;SDS011;38372;52.902;6.024;2022-12-29T04:01:49;7.78;;;1.20;;
52458;SDS011;38372;52.902;6.024;2022-12-29T04:04:14;7.28;;;1.20;;
52458;SDS011;38372;52.902;6.024;2022-12-29T04:06:40;2.85;;;0.95;;
52458;SDS011;38372;52.902;6.024;2022-12-29T04:09:06;4.50;;;1.00;;
52458;SDS011;38372;52.902;6.024;2022-12-29T04:11:32;4.72;;;0.93;;
52458;SDS011;38372;52.902;6.024;2022-12-29T04:13:58;4.68;;;1.23;;
52458;SDS011;38372;52.902;6.024;2022-12-29T04:16:24;2.97;;;1.02;;
52458;SDS011;38372;52.902;6.024;2022-12-29T04:18:49;5.80;;;1.13;;
52458;SDS011;38372;52.902;6.024;2022-12-29T04:21:15;5.68;;;1.10;;
52458;SDS011;38372;52.902;6.024;2022-12-29T04:23:41;6.32;;;1.17;;
52458;SDS011;38372;52.902;6.024;2022-12-29T04:26:07;4.93;;;1.10;;
52458;SDS011;38372;52.902;6.024;2022-12-29T04:28:34;4.70;;;1.40;;
52458;SDS011;38372;52.902;6.024;2022-12-29T04:31:01;5.60;;;1.42;;
52458;SDS011;38372;52.902;6.024;2022-12-29T04:33:27;7.68;;;1.63;;
52458;SDS011;38372;52.902;6.024;2022-12-29T04:35:53;5.57;;;1.58;;
52458;SDS011;38372;52.902;6.024;2022-12-29T04:38:19;5.45;;;1.20;;
52458;SDS011;38372;52.902;6.024;2022-12-29T04:40:47;7.90;;;1.10;;
52458;SDS011;38372;52.902;6.024;2022-12-29T04:43:13;5.63;;;1.48;;
52458;SDS011;38372;52.902;6.024;2022-12-29T04:45:43;6.38;;;1.35;;
52458;SDS011;38372;52.902;6.024;2022-12-29T04:48:09;7.90;;;2.25;;
52458;SDS011;38372;52.902;6.024;2022-12-29T04:50:35;8.75;;;1.95;;
52458;SDS011;38372;52.902;6.024;2022-12-29T04:53:01;6.95;;;1.60;;
52458;SDS011;38372;52.902;6.024;2022-12-29T04:55:27;9.82;;;1.70;;
52458;SDS011;38372;52.902;6.024;2022-12-29T04:57:53;5.57;;;1.95;;
52458;SDS011;38372;52.902;6.024;2022-12-29T05:00:19;7.97;;;1.60;;
52458;SDS011;38372;52.902;6.024;2022-12-29T05:02:44;11.60;;;2.33;;
52458;SDS011;38372;52.902;6.024;2022-12-29T05:05:10;9.68;;;2.13;;
52458;SDS011;38372;52.902;6.024;2022-12-29T05:07:36;10.48;;;1.98;;
52458;SDS011;38372;52.902;6.024;2022-12-29T05:10:02;7.90;;;1.70;;
52458;SDS011;38372;52.902;6.024;2022-12-29T05:12:29;9.25;;;2.50;;
52458;SDS011;38372;52.902;6.024;2022-12-29T05:14:56;9.63;;;1.85;;
52458;SDS011;38372;52.902;6.024;2022-12-29T05:17:22;7.60;;;1.58;;
52458;SDS011;38372;52.902;6.024;2022-12-29T05:19:48;9.23;;;1.95;;
52458;SDS011;38372;52.902;6.024;2022-12-29T05:22:13;9.25;;;1.92;;
52458;SDS011;38372;52.902;6.024;2022-12-29T05:24:39;10.50;;;2.05;;
52458;SDS011;38372;52.902;6.024;2022-12-29T05:27:05;11.73;;;2.33;;
52458;SDS011;38372;52.902;6.024;2022-12-29T05:29:31;10.98;;;2.00;;
52458;SDS011;38372;52.902;6.024;2022-12-29T05:31:58;11.20;;;1.80;;
52458;SDS011;38372;52.902;6.024;2022-12-29T05:34:24;9.00;;;1.75;;
52458;SDS011;38372;52.902;6.024;2022-12-29T05:36:50;8.93;;;2.40;;
52458;SDS011;38372;52.902;6.024;2022-12-29T05:39:17;6.63;;;1.45;;
52458;SDS011;38372;52.902;6.024;2022-12-29T05:41:43;9.07;;;2.13;;
52458;SDS011;38372;52.902;6.024;2022-12-29T05:44:09;6.45;;;1.58;;
52458;SDS011;38372;52.902;6.024;2022-12-29T05:46:36;8.18;;;1.55;;
52458;SDS011;38372;52.902;6.024;2022-12-29T05:49:01;7.32;;;1.65;;
52458;SDS011;38372;52.902;6.024;2022-12-29T05:51:27;6.75;;;1.58;;
52458;SDS011;38372;52.902;6.024;2022-12-29T05:53:53;6.80;;;2.25;;
52458;SDS011;38372;52.902;6.024;2022-12-29T05:56:19;13.65;;;2.13;;
52458;SDS011;38372;52.902;6.024;2022-12-29T05:58:45;8.40;;;1.80;;
52458;SDS011;38372;52.902;6.024;2022-12-29T06:01:10;7.75;;;1.73;;
52458;SDS011;38372;52.902;6.024;2022-12-29T06:03:36;10.00;;;1.70;;
52458;SDS011;38372;52.902;6.024;2022-12-29T06:06:02;13.35;;;2.08;;
52458;SDS011;38372;52.902;6.024;2022-12-29T06:08:28;10.98;;;3.35;;
52458;SDS011;38372;52.902;6.024;2022-12-29T06:10:54;6.40;;;1.63;;
52458;SDS011;38372;52.902;6.024;2022-12-29T06:13:19;11.23;;;2.28;;
52458;SDS011;38372;52.902;6.024;2022-12-29T06:15:47;12.20;;;2.50;;
52458;SDS011;38372;52.902;6.024;2022-12-29T06:18:14;16.42;;;2.72;;
52458;SDS011;38372;52.902;6.024;2022-12-29T06:20:40;15.65;;;1.85;;
52458;SDS011;38372;52.902;6.024;2022-12-29T06:23:05;9.35;;;2.08;;
52458;SDS011;38372;52.902;6.024;2022-12-29T06:25:31;10.77;;;2.58;;
52458;SDS011;38372;52.902;6.024;2022-12-29T06:27:58;10.90;;;1.90;;
52458;SDS011;38372;52.902;6.024;2022-12-29T06:30:24;7.70;;;1.85;;
52458;SDS011;38372;52.902;6.024;2022-12-29T06:32:51;11.95;;;2.00;;
52458;SDS011;38372;52.902;6.024;2022-12-29T06:35:16;8.10;;;2.00;;
52458;SDS011;38372;52.902;6.024;2022-12-29T06:37:42;6.90;;;1.77;;
52458;SDS011;38372;52.902;6.024;2022-12-29T06:40:08;11.25;;;2.05;;
52458;SDS011;38372;52.902;6.024;2022-12-29T06:42:35;13.38;;;3.03;;
52458;SDS011;38372;52.902;6.024;2022-12-29T06:45:01;11.45;;;3.22;;
52458;SDS011;38372;52.902;6.024;2022-12-29T06:47:27;9.52;;;1.80;;
52458;SDS011;38372;52.902;6.024;2022-12-29T06:49:53;11.88;;;2.58;;
52458;SDS011;38372;52.902;6.024;2022-12-29T06:52:18;9.95;;;1.85;;
52458;SDS011;38372;52.902;6.024;2022-12-29T06:54:44;12.93;;;2.28;;
52458;SDS011;38372;52.902;6.024;2022-12-29T06:57:10;9.30;;;1.92;;
52458;SDS011;38372;52.902;6.024;2022-12-29T06:59:36;11.27;;;2.00;;
52458;SDS011;38372;52.902;6.024;2022-12-29T07:02:01;11.38;;;2.50;;
52458;SDS011;38372;52.902;6.024;2022-12-29T07:04:28;10.30;;;2.40;;
52458;SDS011;38372;52.902;6.024;2022-12-29T07:06:54;16.10;;;2.13;;
52458;SDS011;38372;52.902;6.024;2022-12-29T07:09:20;14.27;;;2.40;;
52458;SDS011;38372;52.902;6.024;2022-12-29T07:11:45;10.23;;;2.63;;
52458;SDS011;38372;52.902;6.024;2022-12-29T07:14:11;8.48;;;2.33;;
52458;SDS011;38372;52.902;6.024;2022-12-29T07:16:37;13.80;;;2.28;;
52458;SDS011;38372;52.902;6.024;2022-12-29T07:19:04;15.45;;;2.75;;
52458;SDS011;38372;52.902;6.024;2022-12-29T07:21:30;11.55;;;3.30;;
52458;SDS011;38372;52.902;6.024;2022-12-29T07:23:56;15.25;;;2.40;;
52458;SDS011;38372;52.902;6.024;2022-12-29T07:26:21;11.32;;;2.35;;
52458;SDS011;38372;52.902;6.024;2022-12-29T07:28:47;7.78;;;2.65;;
52458;SDS011;38372;52.902;6.024;2022-12-29T07:31:14;12.25;;;2.20;;
52458;SDS011;38372;52.902;6.024;2022-12-29T07:33:41;6.60;;;1.65;;
52458;SDS011;38372;52.902;6.024;2022-12-29T07:36:08;8.20;;;1.70;;
52458;SDS011;38372;52.902;6.024;2022-12-29T07:38:35;13.55;;;2.47;;
52458;SDS011;38372;52.902;6.024;2022-12-29T07:41:01;13.55;;;2.35;;
52458;SDS011;38372;52.902;6.024;2022-12-29T07:43:26;13.35;;;3.35;;
52458;SDS011;38372;52.902;6.024;2022-12-29T07:45:52;10.77;;;2.53;;
52458;SDS011;38372;52.902;6.024;2022-12-29T07:48:18;10.43;;;2.53;;
52458;SDS011;38372;52.902;6.024;2022-12-29T07:50:44;10.98;;;2.42;;
52458;SDS011;38372;52.902;6.024;2022-12-29T07:53:09;16.65;;;2.95;;
52458;SDS011;38372;52.902;6.024;2022-12-29T07:55:35;10.45;;;2.20;;
52458;SDS011;38372;52.902;6.024;2022-12-29T07:58:01;11.52;;;2.97;;
52458;SDS011;38372;52.902;6.024;2022-12-29T08:00:27;10.35;;;1.85;;
52458;SDS011;38372;52.902;6.024;2022-12-29T08:02:53;11.82;;;2.75;;
52458;SDS011;38372;52.902;6.024;2022-12-29T08:05:19;12.30;;;2.63;;
52458;SDS011;38372;52.902;6.024;2022-12-29T08:07:45;12.85;;;3.72;;
52458;SDS011;38372;52.902;6.024;2022-12-29T08:10:11;12.15;;;2.53;;
52458;SDS011;38372;52.902;6.024;2022-12-29T08:12:38;15.38;;;3.13;;
52458;SDS011;38372;52.902;6.024;2022-12-29T08:15:06;19.33;;;2.80;;
52458;SDS011;38372;52.902;6.024;2022-12-29T08:17:32;16.08;;;3.65;;
52458;SDS011;38372;52.902;6.024;2022-12-29T08:19:58;17.75;;;3.97;;
52458;SDS011;38372;52.902;6.024;2022-12-29T08:22:24;17.77;;;3.13;;
52458;SDS011;38372;52.902;6.024;2022-12-29T08:24:50;15.93;;;3.00;;
52458;SDS011;38372;52.902;6.024;2022-12-29T08:27:17;17.60;;;3.20;;
52458;SDS011;38372;52.902;6.024;2022-12-29T08:29:42;18.02;;;3.58;;
52458;SDS011;38372;52.902;6.024;2022-12-29T08:32:08;14.82;;;2.95;;
52458;SDS011;38372;52.902;6.024;2022-12-29T08:34:34;16.50;;;3.53;;
52458;SDS011;38372;52.902;6.024;2022-12-29T08:37:00;15.43;;;3.38;;
52458;SDS011;38372;52.902;6.024;2022-12-29T08:39:26;13.65;;;3.20;;
52458;SDS011;38372;52.902;6.024;2022-12-29T08:41:52;11.60;;;3.03;;
52458;SDS011;38372;52.902;6.024;2022-12-29T08:44:18;14.50;;;3.05;;
52458;SDS011;38372;52.902;6.024;2022-12-29T08:46:44;17.30;;;3.15;;
52458;SDS011;38372;52.902;6.024;2022-12-29T08:49:10;17.15;;;4.07;;
52458;SDS011;38372;52.902;6.024;2022-12-29T08:51:35;10.65;;;2.85;;
52458;SDS011;38372;52.902;6.024;2022-12-29T08:54:01;12.55;;;3.15;;
52458;SDS011;38372;52.902;6.024;2022-12-29T08:56:27;23.40;;;4.00;;
52458;SDS011;38372;52.902;6.024;2022-12-29T08:58:53;16.83;;;3.15;;
52458;SDS011;38372;52.902;6.024;2022-12-29T09:01:20;14.68;;;3.50;;
52458;SDS011;38372;52.902;6.024;2022-12-29T09:03:46;16.83;;;3.35;;
52458;SDS011;38372;52.902;6.024;2022-12-29T09:06:13;11.60;;;2.60;;
52458;SDS011;38372;52.902;6.024;2022-12-29T09:08:40;11.70;;;2.70;;
52458;SDS011;38372;52.902;6.024;2022-12-29T09:11:06;13.70;;;2.92;;
52458;SDS011;38372;52.902;6.024;2022-12-29T09:13:37;8.25;;;2.25;;
52458;SDS011;38372;52.902;6.024;2022-12-29T09:16:03;13.85;;;2.67;;
52458;SDS011;38372;52.902;6.024;2022-12-29T09:18:29;19.42;;;5.07;;
52458;SDS011;38372;52.902;6.024;2022-12-29T09:21:01;19.80;;;2.80;;
52458;SDS011;38372;52.902;6.024;2022-12-29T09:23:29;12.32;;;2.78;;
52458;SDS011;38372;52.902;6.024;2022-12-29T09:25:55;16.95;;;3.90;;
52458;SDS011;38372;52.902;6.024;2022-12-29T09:28:21;15.30;;;3.15;;
52458;SDS011;38372;52.902;6.024;2022-12-29T09:30:49;13.00;;;3.22;;
52458;SDS011;38372;52.902;6.024;2022-12-29T09:33:15;6.90;;;1.77;;
52458;SDS011;38372;52.902;6.024;2022-12-29T09:35:42;16.52;;;2.80;;
52458;SDS011;38372;52.902;6.024;2022-12-29T09:38:08;11.43;;;2.70;;
52458;SDS011;38372;52.902;6.024;2022-12-29T09:40:34;11.10;;;2.45;;
52458;SDS011;38372;52.902;6.024;2022-12-29T09:48:45;13.50;;;2.22;;
52458;SDS011;38372;52.902;6.024;2022-12-29T09:51:17;14.55;;;2.75;;
52458;SDS011;38372;52.902;6.024;2022-12-29T09:54:34;11.25;;;2.70;;
52458;SDS011;38372;52.902;6.024;2022-12-29T09:56:43;11.43;;;3.15;;
52458;SDS011;38372;52.902;6.024;2022-12-29T09:59:11;15.75;;;3.92;;
52458;SDS011;38372;52.902;6.024;2022-12-29T10:01:59;13.40;;;3.13;;
52458;SDS011;38372;52.902;6.024;2022-12-29T10:04:48;10.48;;;2.65;;
52458;SDS011;38372;52.902;6.024;2022-12-29T10:09:53;14.35;;;2.53;;
52458;SDS011;38372;52.902;6.024;2022-12-29T10:21:34;10.95;;;2.30;;
52458;SDS011;38372;52.902;6.024;2022-12-29T10:24:06;16.23;;;2.45;;
52458;SDS011;38372;52.902;6.024;2022-12-29T10:26:38;14.05;;;2.72;;
52458;SDS011;38372;52.902;6.024;2022-12-29T10:29:08;14.98;;;3.42;;
52458;SDS011;38372;52.902;6.024;2022-12-29T10:31:48;14.02;;;2.90;;
52458;SDS011;38372;52.902;6.024;2022-12-29T10:37:14;15.10;;;3.75;;
52458;SDS011;38372;52.902;6.024;2022-12-29T10:39:55;14.10;;;2.80;;
52458;SDS011;38372;52.902;6.024;2022-12-29T10:42:34;13.07;;;3.72;;
52458;SDS011;38372;52.902;6.024;2022-12-29T10:45:05;11.77;;;2.05;;
52458;SDS011;38372;52.902;6.024;2022-12-29T10:47:38;17.10;;;3.63;;
52458;SDS011;38372;52.902;6.024;2022-12-29T10:50:12;15.13;;;3.35;;
52458;SDS011;38372;52.902;6.024;2022-12-29T10:52:38;20.70;;;4.57;;
52458;SDS011;38372;52.902;6.024;2022-12-29T10:55:10;14.02;;;2.70;;
52458;SDS011;38372;52.902;6.024;2022-12-29T10:57:43;14.60;;;3.00;;
52458;SDS011;38372;52.902;6.024;2022-12-29T11:02:43;17.13;;;4.07;;
52458;SDS011;38372;52.902;6.024;2022-12-29T11:05:26;15.82;;;3.28;;
52458;SDS011;38372;52.902;6.024;2022-12-29T11:08:24;16.45;;;4.43;;
52458;SDS011;38372;52.902;6.024;2022-12-29T11:11:00;15.70;;;3.85;;
52458;SDS011;38372;52.902;6.024;2022-12-29T11:13:31;27.38;;;5.78;;
52458;SDS011;38372;52.902;6.024;2022-12-29T11:15:59;24.45;;;4.60;;
52458;SDS011;38372;52.902;6.024;2022-12-29T11:21:03;20.58;;;3.60;;
52458;SDS011;38372;52.902;6.024;2022-12-29T11:23:32;20.98;;;4.13;;
52458;SDS011;38372;52.902;6.024;2022-12-29T11:28:37;14.98;;;3.25;;
52458;SDS011;38372;52.902;6.024;2022-12-29T11:31:05;22.75;;;3.88;;
52458;SDS011;38372;52.902;6.024;2022-12-29T11:33:32;20.60;;;4.32;;
52458;SDS011;38372;52.902;6.024;2022-12-29T11:36:33;16.38;;;3.60;;
52458;SDS011;38372;52.902;6.024;2022-12-29T11:38:52;22.92;;;5.60;;
52458;SDS011;38372;52.902;6.024;2022-12-29T11:41:21;20.75;;;4.20;;
52458;SDS011;38372;52.902;6.024;2022-12-29T11:43:49;25.67;;;4.68;;
52458;SDS011;38372;52.902;6.024;2022-12-29T11:46:23;22.05;;;4.28;;
52458;SDS011;38372;52.902;6.024;2022-12-29T11:48:52;22.67;;;4.72;;
52458;SDS011;38372;52.902;6.024;2022-12-29T11:51:22;16.15;;;3.58;;
52458;SDS011;38372;52.902;6.024;2022-12-29T11:53:51;20.40;;;4.95;;
52458;SDS011;38372;52.902;6.024;2022-12-29T11:58:55;23.67;;;4.07;;
52458;SDS011;38372;52.902;6.024;2022-12-29T12:01:31;15.00;;;3.75;;
52458;SDS011;38372;52.902;6.024;2022-12-29T12:04:04;21.48;;;4.13;;
52458;SDS011;38372;52.902;6.024;2022-12-29T12:07:03;20.45;;;4.78;;
52458;SDS011;38372;52.902;6.024;2022-12-29T12:12:24;15.10;;;4.00;;
52458;SDS011;38372;52.902;6.024;2022-12-29T12:14:56;21.10;;;5.47;;
52458;SDS011;38372;52.902;6.024;2022-12-29T12:17:26;23.92;;;4.45;;
52458;SDS011;38372;52.902;6.024;2022-12-29T12:20:15;17.23;;;4.78;;
52458;SDS011;38372;52.902;6.024;2022-12-29T12:26:12;19.95;;;3.30;;
52458;SDS011;38372;52.902;6.024;2022-12-29T12:28:44;15.43;;;4.65;;
52458;SDS011;38372;52.902;6.024;2022-12-29T12:31:38;17.17;;;2.35;;
52458;SDS011;38372;52.902;6.024;2022-12-29T12:53:48;9.95;;;2.45;;
52458;SDS011;38372;52.902;6.024;2022-12-29T12:56:22;11.95;;;2.45;;
52458;SDS011;38372;52.902;6.024;2022-12-29T13:07:25;10.93;;;2.22;;
52458;SDS011;38372;52.902;6.024;2022-12-29T13:10:22;10.82;;;2.35;;
52458;SDS011;38372;52.902;6.024;2022-12-29T13:20:55;8.95;;;2.70;;
52458;SDS011;38372;52.902;6.024;2022-12-29T13:26:18;11.57;;;1.83;;
52458;SDS011;38372;52.902;6.024;2022-12-29T13:36:56;11.32;;;2.15;;
52458;SDS011;38372;52.902;6.024;2022-12-29T13:39:34;16.70;;;2.95;;
52458;SDS011;38372;52.902;6.024;2022-12-29T13:42:05;15.98;;;2.60;;
52458;SDS011;38372;52.902;6.024;2022-12-29T13:44:34;14.63;;;3.65;;
52458;SDS011;38372;52.902;6.024;2022-12-29T13:49:58;16.65;;;2.95;;
52458;SDS011;38372;52.902;6.024;2022-12-29T14:08:48;11.25;;;2.10;;
52458;SDS011;38372;52.902;6.024;2022-12-29T14:11:15;12.85;;;2.95;;
52458;SDS011;38372;52.902;6.024;2022-12-29T14:13:43;11.90;;;3.42;;
52458;SDS011;38372;52.902;6.024;2022-12-29T14:16:33;20.30;;;2.70;;
52458;SDS011;38372;52.902;6.024;2022-12-29T14:19:05;15.23;;;4.30;;
52458;SDS011;38372;52.902;6.024;2022-12-29T14:21:52;13.25;;;2.45;;
52458;SDS011;38372;52.902;6.024;2022-12-29T14:24:28;17.42;;;5.10;;
52458;SDS011;38372;52.902;6.024;2022-12-29T14:34:59;15.50;;;2.53;;
52458;SDS011;38372;52.902;6.024;2022-12-29T14:38:05;12.18;;;2.58;;
52458;SDS011;38372;52.902;6.024;2022-12-29T14:40:40;13.25;;;2.35;;
52458;SDS011;38372;52.902;6.024;2022-12-29T14:43:11;5.35;;;1.70;;
52458;SDS011;38372;52.902;6.024;2022-12-29T14:45:42;15.13;;;3.60;;
52458;SDS011;38372;52.902;6.024;2022-12-29T14:48:30;13.65;;;3.63;;
52458;SDS011;38372;52.902;6.024;2022-12-29T14:50:59;13.02;;;3.15;;
52458;SDS011;38372;52.902;6.024;2022-12-29T14:56:08;13.00;;;1.75;;
52458;SDS011;38372;52.902;6.024;2022-12-29T15:06:46;11.82;;;1.88;;
52458;SDS011;38372;52.902;6.024;2022-12-29T15:12:04;10.90;;;1.42;;
52458;SDS011;38372;52.902;6.024;2022-12-29T15:14:32;8.25;;;2.60;;
52458;SDS011;38372;52.902;6.024;2022-12-29T15:17:36;14.98;;;3.40;;
52458;SDS011;38372;52.902;6.024;2022-12-29T15:19:56;11.43;;;2.03;;
52458;SDS011;38372;52.902;6.024;2022-12-29T15:22:24;12.88;;;3.50;;
52458;SDS011;38372;52.902;6.024;2022-12-29T15:24:54;11.88;;;2.38;;
52458;SDS011;38372;52.902;6.024;2022-12-29T15:27:31;11.55;;;2.45;;
52458;SDS011;38372;52.902;6.024;2022-12-29T15:29:58;9.73;;;1.92;;
52458;SDS011;38372;52.902;6.024;2022-12-29T15:32:27;11.50;;;3.65;;
52458;SDS011;38372;52.902;6.024;2022-12-29T15:34:56;10.90;;;1.80;;
52458;SDS011;38372;52.902;6.024;2022-12-29T15:37:26;17.60;;;3.17;;
52458;SDS011;38372;52.902;6.024;2022-12-29T15:39:57;12.63;;;1.92;;
52458;SDS011;38372;52.902;6.024;2022-12-29T15:44:57;8.05;;;2.33;;
52458;SDS011;38372;52.902;6.024;2022-12-29T15:47:24;10.82;;;2.28;;
52458;SDS011;38372;52.902;6.024;2022-12-29T15:50:05;10.45;;;2.45;;
52458;SDS011;38372;52.902;6.024;2022-12-29T15:52:33;9.05;;;3.22;;
52458;SDS011;38372;52.902;6.024;2022-12-29T15:55:00;10.50;;;2.17;;
52458;SDS011;38372;52.902;6.024;2022-12-29T15:57:31;13.23;;;2.67;;
52458;SDS011;38372;52.902;6.024;2022-12-29T16:00:03;8.27;;;2.25;;
52458;SDS011;38372;52.902;6.024;2022-12-29T16:02:42;20.40;;;2.72;;
52458;SDS011;38372;52.902;6.024;2022-12-29T16:05:08;9.27;;;2.22;;
52458;SDS011;38372;52.902;6.024;2022-12-29T16:07:34;12.82;;;2.70;;
52458;SDS011;38372;52.902;6.024;2022-12-29T16:10:01;8.18;;;2.90;;
52458;SDS011;38372;52.902;6.024;2022-12-29T16:12:39;13.43;;;2.60;;
52458;SDS011;38372;52.902;6.024;2022-12-29T16:15:12;13.05;;;3.22;;
52458;SDS011;38372;52.902;6.024;2022-12-29T16:17:47;12.15;;;2.78;;
52458;SDS011;38372;52.902;6.024;2022-12-29T16:22:47;11.07;;;2.45;;
52458;SDS011;38372;52.902;6.024;2022-12-29T16:25:25;8.77;;;1.65;;
52458;SDS011;38372;52.902;6.024;2022-12-29T16:27:56;9.55;;;1.50;;
52458;SDS011;38372;52.902;6.024;2022-12-29T16:30:28;6.65;;;1.40;;
52458;SDS011;38372;52.902;6.024;2022-12-29T16:33:29;5.30;;;1.15;;
52458;SDS011;38372;52.902;6.024;2022-12-29T16:39:55;9.05;;;1.10;;
52458;SDS011;38372;52.902;6.024;2022-12-29T16:41:51;6.10;;;1.52;;
52458;SDS011;38372;52.902;6.024;2022-12-29T16:44:19;4.47;;;1.13;;
52458;SDS011;38372;52.902;6.024;2022-12-29T16:49:26;6.28;;;1.67;;
52458;SDS011;38372;52.902;6.024;2022-12-29T16:51:54;4.82;;;1.17;;
52458;SDS011;38372;52.902;6.024;2022-12-29T16:54:23;4.53;;;1.70;;
52458;SDS011;38372;52.902;6.024;2022-12-29T16:56:53;6.55;;;1.23;;
52458;SDS011;38372;52.902;6.024;2022-12-29T17:01:57;10.30;;;2.00;;
52458;SDS011;38372;52.902;6.024;2022-12-29T17:04:24;13.68;;;2.50;;
52458;SDS011;38372;52.902;6.024;2022-12-29T17:06:49;14.80;;;2.38;;
52458;SDS011;38372;52.902;6.024;2022-12-29T17:09:16;12.23;;;2.55;;
52458;SDS011;38372;52.902;6.024;2022-12-29T17:11:44;16.92;;;2.90;;
52458;SDS011;38372;52.902;6.024;2022-12-29T17:16:59;10.40;;;3.17;;
52458;SDS011;38372;52.902;6.024;2022-12-29T17:19:28;15.48;;;3.53;;
52458;SDS011;38372;52.902;6.024;2022-12-29T17:24:22;18.40;;;2.88;;
52458;SDS011;38372;52.902;6.024;2022-12-29T17:26:49;13.35;;;3.42;;
52458;SDS011;38372;52.902;6.024;2022-12-29T17:29:38;14.13;;;2.72;;
52458;SDS011;38372;52.902;6.024;2022-12-29T17:32:05;15.77;;;3.13;;
52458;SDS011;38372;52.902;6.024;2022-12-29T17:34:36;11.10;;;2.50;;
52458;SDS011;38372;52.902;6.024;2022-12-29T17:37:27;17.00;;;3.25;;
52458;SDS011;38372;52.902;6.024;2022-12-29T17:39:49;12.30;;;2.13;;
52458;SDS011;38372;52.902;6.024;2022-12-29T17:42:15;14.30;;;2.50;;
52458;SDS011;38372;52.902;6.024;2022-12-29T17:44:42;12.07;;;2.70;;
52458;SDS011;38372;52.902;6.024;2022-12-29T17:47:11;11.13;;;2.83;;
52458;SDS011;38372;52.902;6.024;2022-12-29T17:49:37;14.80;;;2.85;;
52458;SDS011;38372;52.902;6.024;2022-12-29T17:52:03;13.48;;;2.55;;
52458;SDS011;38372;52.902;6.024;2022-12-29T17:54:29;16.75;;;3.63;;
52458;SDS011;38372;52.902;6.024;2022-12-29T17:56:58;15.20;;;3.08;;
52458;SDS011;38372;52.902;6.024;2022-12-29T17:59:24;15.15;;;2.90;;
52458;SDS011;38372;52.902;6.024;2022-12-29T18:01:49;13.82;;;2.65;;